createdAt,value
2019-02-23T00:00:51.153Z,102573.66
2019-02-23T00:03:17.555Z,102575.27
2019-02-23T00:05:44.170Z,102575.59
2019-02-23T00:08:10.735Z,102560.89
2019-02-23T00:10:37.314Z,102563.41
2019-02-23T00:13:03.916Z,102556.94
2019-02-23T00:15:30.290Z,102570.30
2019-02-23T00:17:56.615Z,102580.11
2019-02-23T00:20:22.938Z,102582.24
2019-02-23T00:22:49.547Z,102577.42
2019-02-23T00:25:16.111Z,102567.59
2019-02-23T00:27:42.453Z,102575.63
2019-02-23T00:30:08.898Z,102573.47
2019-02-23T00:32:35.249Z,102577.33
2019-02-23T00:35:01.615Z,102582.89
2019-02-23T00:37:27.932Z,102586.84
2019-02-23T00:39:54.555Z,102598.98
2019-02-23T00:42:20.866Z,102598.95
2019-02-23T00:44:47.212Z,102599.84
2019-02-23T00:47:13.532Z,102602.75
2019-02-23T00:49:40.099Z,102601.88
2019-02-23T00:52:06.721Z,102601.01
2019-02-23T00:54:33.068Z,102591.48
2019-02-23T00:56:59.697Z,102586.76
2019-02-23T00:59:26.266Z,102580.64
2019-02-23T01:01:53.153Z,102580.48
2019-02-23T01:04:21.434Z,102574.41
2019-02-23T01:06:48.017Z,102586.82
2019-02-23T01:09:14.637Z,102592.35
2019-02-23T01:11:40.969Z,102584.12
2019-02-23T01:14:07.344Z,102584.12
2019-02-23T01:16:34.034Z,102582.73
2019-02-23T01:19:00.355Z,102586.23
2019-02-23T01:21:26.645Z,102593.52
2019-02-23T01:23:52.990Z,102607.03
2019-02-23T01:26:19.566Z,102601.31
2019-02-23T01:28:45.897Z,102592.47
2019-02-23T01:31:12.929Z,102588.85
2019-02-23T01:33:39.406Z,102581.48
2019-02-23T01:36:05.743Z,102588.77
2019-02-23T01:38:32.085Z,102586.10
2019-02-23T01:40:58.401Z,102587.39
2019-02-23T01:43:24.735Z,102580.53
2019-02-23T01:45:51.060Z,102570.11
2019-02-23T01:48:17.419Z,102570.86
2019-02-23T01:50:43.784Z,102568.70
2019-02-23T01:53:10.183Z,102569.60
2019-02-23T01:55:36.593Z,102564.84
2019-02-23T01:58:03.205Z,102569.84
2019-02-23T02:00:30.568Z,102567.04
2019-02-23T02:02:57.195Z,102563.76
2019-02-23T02:05:24.543Z,102552.34
2019-02-23T02:07:50.979Z,102551.11
2019-02-23T02:10:17.971Z,102540.66
2019-02-23T02:12:44.292Z,102543.69
2019-02-23T02:15:13.471Z,102534.94
2019-02-23T02:17:39.825Z,102528.41
2019-02-23T02:20:11.040Z,102515.55
2019-02-23T02:22:35.402Z,102522.39
2019-02-23T02:25:01.984Z,102515.95
2019-02-23T02:27:29.494Z,102507.92
2019-02-23T02:29:56.135Z,102493.33
2019-02-23T02:32:22.577Z,102473.58
2019-02-23T02:34:49.224Z,102472.91
2019-02-23T02:37:15.538Z,102469.25
2019-02-23T02:39:41.928Z,102471.94
2019-02-23T02:42:08.245Z,102482.77
2019-02-23T02:44:34.583Z,102500.69
2019-02-23T02:47:00.925Z,102511.62
2019-02-23T02:49:27.509Z,102517.74
2019-02-23T02:51:54.246Z,102512.95
2019-02-23T02:54:20.614Z,102512.14
2019-02-23T02:56:47.386Z,102509.25
2019-02-23T02:59:13.817Z,102512.74
2019-02-23T03:01:40.169Z,102506.67
2019-02-23T03:04:06.590Z,102498.08
2019-02-23T03:06:32.937Z,102507.06
2019-02-23T03:08:59.564Z,102525.23
2019-02-23T03:11:25.945Z,102514.00
2019-02-23T03:13:52.282Z,102510.86
2019-02-23T03:16:18.953Z,102507.89
2019-02-23T03:18:45.335Z,102513.02
2019-02-23T03:21:11.641Z,102495.95
2019-02-23T03:23:38.311Z,102501.13
2019-02-23T03:26:04.636Z,102506.32
2019-02-23T03:28:31.052Z,102498.94
2019-02-23T03:30:57.644Z,102500.67
2019-02-23T03:33:23.960Z,102494.68
2019-02-23T03:35:50.616Z,102494.68
2019-02-23T03:38:17.277Z,102492.50
2019-02-23T03:40:43.886Z,102494.14
2019-02-23T03:43:10.199Z,102491.53
2019-02-23T03:45:36.529Z,102493.34
2019-02-23T03:48:03.122Z,102490.64
2019-02-23T03:50:29.538Z,102485.14
2019-02-23T03:52:56.736Z,102495.13
2019-02-23T03:55:23.818Z,102492.62
2019-02-23T03:57:54.155Z,102482.67
2019-02-23T04:00:21.017Z,102493.17
2019-02-23T04:02:47.352Z,102484.00
2019-02-23T04:05:13.700Z,102483.50
2019-02-23T04:07:40.300Z,102480.36
2019-02-23T04:10:07.190Z,102472.45
2019-02-23T04:12:33.610Z,102479.16
2019-02-23T04:15:00.411Z,102501.98
2019-02-23T04:17:27.071Z,102491.48
2019-02-23T04:19:53.424Z,102486.54
2019-02-23T04:22:20.024Z,102492.65
2019-02-23T04:24:46.393Z,102484.93
2019-02-23T04:27:12.688Z,102480.59
2019-02-23T04:29:39.296Z,102480.91
2019-02-23T04:32:05.590Z,102484.84
2019-02-23T04:34:32.230Z,102481.42
2019-02-23T04:36:58.900Z,102490.49
2019-02-23T04:39:25.556Z,102489.20
2019-02-23T04:41:51.851Z,102489.11
2019-02-23T04:44:18.437Z,102479.81
2019-02-23T04:46:44.758Z,102489.20
2019-02-23T04:49:11.084Z,102481.81
2019-02-23T04:51:37.456Z,102464.09
2019-02-23T04:54:03.750Z,102450.70
2019-02-23T04:56:30.086Z,102436.30
2019-02-23T04:58:56.690Z,102430.28
2019-02-23T05:01:23.408Z,102442.44
2019-02-23T05:03:49.842Z,102438.48
2019-02-23T05:06:16.444Z,102434.17
2019-02-23T05:08:42.804Z,102429.00
2019-02-23T05:11:09.208Z,102419.03
2019-02-23T05:13:35.582Z,102416.91
2019-02-23T05:16:01.890Z,102415.59
2019-02-23T05:18:29.562Z,102420.32
2019-02-23T05:20:55.856Z,102420.70
2019-02-23T05:23:22.167Z,102416.98
2019-02-23T05:25:48.501Z,102419.68
2019-02-23T05:28:14.833Z,102429.61
2019-02-23T05:30:41.464Z,102438.22
2019-02-23T05:33:07.772Z,102438.93
2019-02-23T05:35:34.439Z,102443.30
2019-02-23T05:38:01.061Z,102449.28
2019-02-23T05:40:27.388Z,102447.61
2019-02-23T05:43:00.930Z,102457.25
2019-02-23T05:45:21.956Z,102477.05
2019-02-23T05:47:48.546Z,102474.09
2019-02-23T05:50:14.923Z,102474.09
2019-02-23T05:52:41.216Z,102465.41
2019-02-23T05:55:07.707Z,102473.19
2019-02-23T05:57:34.008Z,102467.05
2019-02-23T06:00:00.358Z,102468.30
2019-02-23T06:02:26.690Z,102473.75
2019-02-23T06:04:53.321Z,102486.05
2019-02-23T06:07:19.649Z,102499.91
2019-02-23T06:09:45.977Z,102492.92
2019-02-23T06:12:12.380Z,102485.45
2019-02-23T06:14:38.742Z,102486.64
2019-02-23T06:17:05.110Z,102490.56
2019-02-23T06:19:31.413Z,102492.65
2019-02-23T06:21:57.723Z,102482.82
2019-02-23T06:24:24.300Z,102486.71
2019-02-23T06:26:51.655Z,102488.93
2019-02-23T06:29:17.974Z,102490.73
2019-02-23T06:31:44.559Z,102501.20
2019-02-23T06:34:16.092Z,102513.28
2019-02-23T06:36:39.400Z,102521.17
2019-02-23T06:39:06.038Z,102526.16
2019-02-23T06:41:32.678Z,102536.58
2019-02-23T06:43:59.289Z,102527.70
2019-02-23T06:46:25.602Z,102535.54
2019-02-23T06:48:51.913Z,102552.57
2019-02-23T06:51:18.230Z,102545.32
2019-02-23T06:53:44.574Z,102545.08
2019-02-23T06:56:11.192Z,102541.31
2019-02-23T06:58:37.512Z,102545.68
2019-02-23T07:01:03.813Z,102551.55
2019-02-23T07:03:30.162Z,102554.09
2019-02-23T07:05:56.534Z,102563.70
2019-02-23T07:08:23.170Z,102571.89
2019-02-23T07:10:49.709Z,102582.27
2019-02-23T07:13:16.289Z,102594.09
2019-02-23T07:15:42.691Z,102599.40
2019-02-23T07:18:09.021Z,102615.58
2019-02-23T07:20:43.858Z,102615.64
2019-02-23T07:23:03.931Z,102621.34
2019-02-23T07:25:30.533Z,102621.88
2019-02-23T07:27:57.180Z,102619.26
2019-02-23T07:30:23.594Z,102630.12
2019-02-23T07:32:49.937Z,102651.86
2019-02-23T07:35:17.306Z,102649.00
2019-02-23T07:37:43.689Z,102650.71
2019-02-23T07:40:15.107Z,102656.45
2019-02-23T07:42:41.567Z,102665.98
2019-02-23T07:45:09.414Z,102669.34
2019-02-23T07:47:36.233Z,102670.11
2019-02-23T07:50:06.772Z,102666.28
2019-02-23T07:52:33.232Z,102641.65
2019-02-23T07:54:59.874Z,102637.77
2019-02-23T07:57:26.302Z,102639.64
2019-02-23T07:59:52.657Z,102645.33
2019-02-23T08:02:19.228Z,102651.81
2019-02-23T08:04:45.591Z,102656.59
2019-02-23T08:07:12.029Z,102661.38
2019-02-23T08:09:38.690Z,102651.59
2019-02-23T08:12:05.097Z,102648.62
2019-02-23T08:14:31.440Z,102650.80
2019-02-23T08:16:57.761Z,102647.70
2019-02-23T08:19:24.354Z,102641.75
2019-02-23T08:21:50.678Z,102650.42
2019-02-23T08:24:17.296Z,102655.72
2019-02-23T08:26:43.605Z,102659.98
2019-02-23T08:29:09.983Z,102657.81
2019-02-23T08:31:36.560Z,102654.80
2019-02-23T08:34:03.169Z,102656.57
2019-02-23T08:36:29.494Z,102654.85
2019-02-23T08:38:56.092Z,102671.70
2019-02-23T08:41:22.423Z,102683.83
2019-02-23T08:43:48.759Z,102688.16
2019-02-23T08:46:15.213Z,102695.07
2019-02-23T08:48:41.870Z,102701.56
2019-02-23T08:51:08.466Z,102702.43
2019-02-23T08:53:34.770Z,102701.97
2019-02-23T08:56:01.091Z,102686.44
2019-02-23T08:58:27.689Z,102678.20
2019-02-23T09:00:54.042Z,102673.02
2019-02-23T09:03:20.660Z,102669.59
2019-02-23T09:05:47.053Z,102653.58
2019-02-23T09:08:13.512Z,102648.83
2019-02-23T09:10:39.852Z,102631.98
2019-02-23T09:13:06.188Z,102623.34
2019-02-23T09:15:32.559Z,102620.63
2019-02-23T09:17:58.904Z,102619.39
2019-02-23T09:20:29.053Z,102619.78
2019-02-23T09:23:00.132Z,102618.00
2019-02-23T09:25:21.720Z,102614.52
2019-02-23T09:27:48.197Z,102616.76
2019-02-23T09:30:14.632Z,102625.47
2019-02-23T09:32:40.945Z,102625.89
2019-02-23T09:35:07.261Z,102630.16
2019-02-23T09:37:34.793Z,102625.22
2019-02-23T09:40:01.110Z,102629.88
2019-02-23T09:42:27.428Z,102629.05
2019-02-23T09:44:54.043Z,102629.48
2019-02-23T09:47:20.368Z,102627.75
2019-02-23T09:49:46.790Z,102626.12
2019-02-23T09:52:13.439Z,102623.86
2019-02-23T09:54:40.059Z,102622.13
2019-02-23T09:57:07.563Z,102616.50
2019-02-23T09:59:33.843Z,102616.30
2019-02-23T10:02:00.182Z,102603.99
2019-02-23T10:04:26.784Z,102600.14
2019-02-23T10:06:53.115Z,102601.16
2019-02-23T10:09:19.710Z,102603.17
2019-02-23T10:11:46.034Z,102596.58
2019-02-23T10:14:12.379Z,102590.55
2019-02-23T10:16:38.745Z,102590.13
2019-02-23T10:19:05.422Z,102583.39
2019-02-23T10:21:32.046Z,102583.30
2019-02-23T10:23:58.653Z,102573.75
2019-02-23T10:26:25.027Z,102564.91
2019-02-23T10:28:51.726Z,102557.84
2019-02-23T10:31:18.370Z,102548.19
2019-02-23T10:33:47.642Z,102545.28
2019-02-23T10:36:13.165Z,102542.16
2019-02-23T10:38:39.518Z,102537.52
2019-02-23T10:41:06.334Z,102529.58
2019-02-23T10:43:32.692Z,102537.71
2019-02-23T10:45:59.074Z,102538.59
2019-02-23T10:48:25.735Z,102533.52
2019-02-23T10:50:52.213Z,102525.08
2019-02-23T10:53:20.014Z,102524.83
2019-02-23T10:55:46.555Z,102527.23
2019-02-23T10:58:13.191Z,102522.56
2019-02-23T11:00:39.532Z,102524.84
2019-02-23T11:03:06.149Z,102507.09
2019-02-23T11:05:32.558Z,102505.01
2019-02-23T11:07:58.923Z,102506.54
2019-02-23T11:10:25.714Z,102502.19
2019-02-23T11:12:52.556Z,102498.56
2019-02-23T11:15:19.779Z,102505.75
2019-02-23T11:17:46.321Z,102501.02
2019-02-23T11:20:14.715Z,102507.05
2019-02-23T11:22:41.643Z,102495.93
2019-02-23T11:25:10.072Z,102496.82
2019-02-23T11:27:36.406Z,102486.38
2019-02-23T11:30:07.693Z,102475.93
2019-02-23T11:32:35.284Z,102486.34
2019-02-23T11:35:01.889Z,102481.41
2019-02-23T11:37:28.248Z,102476.19
2019-02-23T11:39:54.830Z,102481.08
2019-02-23T11:42:21.258Z,102469.27
2019-02-23T11:44:47.617Z,102460.39
2019-02-23T11:47:13.982Z,102464.95
2019-02-23T11:49:40.300Z,102468.27
2019-02-23T11:52:07.050Z,102457.16
2019-02-23T11:54:33.375Z,102457.61
2019-02-23T11:57:00.146Z,102471.09
2019-02-23T11:59:26.533Z,102462.83
2019-02-23T12:01:53.022Z,102462.52
2019-02-23T12:04:19.413Z,102452.09
2019-02-23T12:06:45.739Z,102454.14
2019-02-23T12:09:12.069Z,102412.44
2019-02-23T12:11:38.622Z,102444.75
2019-02-23T12:14:05.931Z,102453.13
2019-02-23T12:16:32.490Z,102449.20
2019-02-23T12:18:59.003Z,102439.07
2019-02-23T12:21:25.670Z,102438.94
2019-02-23T12:23:52.148Z,102433.56
2019-02-23T12:26:18.462Z,102425.65
2019-02-23T12:28:44.817Z,102428.09
2019-02-23T12:31:11.165Z,102415.31
2019-02-23T12:33:37.781Z,102419.96
2019-02-23T12:36:04.123Z,102415.84
2019-02-23T12:38:30.754Z,102409.29
2019-02-23T12:40:57.402Z,102417.02
2019-02-23T12:43:23.731Z,102414.75
2019-02-23T12:45:50.379Z,102400.50
2019-02-23T12:48:16.827Z,102411.69
2019-02-23T12:50:43.461Z,102423.90
2019-02-23T12:53:10.144Z,102431.16
2019-02-23T12:55:37.549Z,102426.70
2019-02-23T12:58:04.463Z,102437.42
2019-02-23T13:00:31.004Z,102433.14
2019-02-23T13:02:57.372Z,102424.73
2019-02-23T13:05:23.988Z,102417.56
2019-02-23T13:07:50.382Z,102421.27
2019-02-23T13:10:16.797Z,102421.41
2019-02-23T13:13:11.262Z,102413.53
2019-02-23T13:15:49.533Z,102419.64
2019-02-23T13:18:44.589Z,102417.59
2019-02-23T13:21:21.652Z,102421.80
2019-02-23T13:24:31.020Z,102432.00
2019-02-23T13:27:08.899Z,102428.73
2019-02-23T13:29:59.119Z,102440.20
2019-02-23T13:32:33.755Z,102438.58
2019-02-23T13:35:43.275Z,102429.34
2019-02-23T13:38:41.098Z,102426.13
2019-02-23T13:41:30.294Z,102431.66
2019-02-23T13:44:36.910Z,102433.98
2019-02-23T13:47:20.594Z,102438.34
2019-02-23T13:50:21.153Z,102437.77
2019-02-23T13:53:13.625Z,102426.58
2019-02-23T13:56:21.346Z,102427.22
2019-02-23T13:59:12.986Z,102424.03
2019-02-23T14:02:06.010Z,102429.80
2019-02-23T14:04:49.579Z,102434.02
2019-02-23T14:07:55.633Z,102429.49
2019-02-23T14:10:37.246Z,102423.45
2019-02-23T14:13:33.660Z,102417.64
2019-02-23T14:16:08.483Z,102412.31
2019-02-23T14:19:07.574Z,102401.60
2019-02-23T14:22:07.813Z,102396.43
2019-02-23T14:25:05.563Z,102384.52
2019-02-23T14:28:10.551Z,102370.70
2019-02-23T14:31:05.532Z,102362.81
2019-02-23T14:34:01.577Z,102354.38
2019-02-23T14:36:55.480Z,102348.58
2019-02-23T14:39:45.561Z,102343.45
2019-02-23T14:42:39.843Z,102345.35
2019-02-23T14:45:44.358Z,102345.86
2019-02-23T14:48:40.375Z,102352.33
2019-02-23T14:51:34.664Z,102344.63
2019-02-23T14:54:09.439Z,102351.80
2019-02-23T14:56:44.585Z,102350.65
2019-02-23T14:59:33.151Z,102346.31
2019-02-23T15:02:11.316Z,102347.08
2019-02-23T15:05:05.676Z,102353.73
2019-02-23T15:07:52.566Z,102319.59
2019-02-23T15:10:44.241Z,102337.58
2019-02-23T15:13:38.558Z,102332.19
2019-02-23T15:16:25.602Z,102327.94
2019-02-23T15:19:22.998Z,102333.30
2019-02-23T15:21:55.006Z,102329.06
2019-02-23T15:24:29.937Z,102314.67
2019-02-23T15:27:20.078Z,102318.69
2019-02-23T15:30:06.821Z,102307.16
2019-02-23T15:33:02.508Z,102300.34
2019-02-23T15:35:55.419Z,102305.34
2019-02-23T15:38:42.718Z,102315.52
2019-02-23T15:41:40.004Z,102330.02
2019-02-23T15:44:21.573Z,102330.83
2019-02-23T15:47:08.910Z,102342.50
2019-02-23T15:49:35.421Z,102329.34
2019-02-23T15:52:02.716Z,102318.16
2019-02-23T15:54:29.362Z,102310.84
2019-02-23T15:56:56.188Z,102311.94
2019-02-23T15:59:22.617Z,102308.86
2019-02-23T16:01:50.446Z,102306.94
2019-02-23T16:04:17.056Z,102317.65
2019-02-23T16:06:43.409Z,102323.02
2019-02-23T16:09:09.993Z,102322.67
2019-02-23T16:11:36.660Z,102305.63
2019-02-23T16:14:02.970Z,102312.89
2019-02-23T16:16:29.299Z,102322.25
2019-02-23T16:18:55.733Z,102320.50
2019-02-23T16:21:22.313Z,102310.34
2019-02-23T16:23:48.935Z,102313.50
2019-02-23T16:26:15.591Z,102311.66
2019-02-23T16:28:41.925Z,102319.69
2019-02-23T16:31:08.641Z,102320.48
2019-02-23T16:33:35.270Z,102324.65
2019-02-23T16:36:02.120Z,102329.37
2019-02-23T16:38:28.830Z,102331.63
2019-02-23T16:40:55.349Z,102328.58
2019-02-23T16:43:24.494Z,102327.63
2019-02-23T16:45:50.994Z,102331.13
2019-02-23T16:48:17.301Z,102331.36
2019-02-23T16:50:43.922Z,102333.70
2019-02-23T16:53:10.496Z,102333.91
2019-02-23T16:55:37.144Z,102332.87
2019-02-23T16:58:03.452Z,102331.16
2019-02-23T17:00:30.112Z,102330.51
2019-02-23T17:02:56.865Z,102331.98
2019-02-23T17:05:23.290Z,102329.23
2019-02-23T17:07:50.081Z,102332.94
2019-02-23T17:10:16.792Z,102333.52
2019-02-23T17:12:43.801Z,102337.03
2019-02-23T17:15:10.751Z,102336.59
2019-02-23T17:17:37.365Z,102339.21
2019-02-23T17:20:04.827Z,102331.53
2019-02-23T17:22:31.236Z,102331.61
2019-02-23T17:24:57.810Z,102332.61
2019-02-23T17:27:35.543Z,102331.33
2019-02-23T17:29:53.438Z,102331.23
2019-02-23T17:32:20.068Z,102337.32
2019-02-23T17:34:46.693Z,102340.78
2019-02-23T17:37:13.247Z,102340.84
2019-02-23T17:39:39.649Z,102333.53
2019-02-23T17:42:06.795Z,102328.05
2019-02-23T17:44:33.427Z,102319.55
2019-02-23T17:47:00.101Z,102321.67
2019-02-23T17:49:26.696Z,102321.72
2019-02-23T17:51:52.996Z,102315.30
2019-02-23T17:54:19.314Z,102307.98
2019-02-23T17:56:46.700Z,102299.39
2019-02-23T17:59:14.405Z,102306.36
2019-02-23T18:01:40.843Z,102303.77
2019-02-23T18:04:07.197Z,102308.48
2019-02-23T18:06:34.915Z,102319.77
2019-02-23T18:09:01.348Z,102313.86
2019-02-23T18:11:29.964Z,102317.80
2019-02-23T18:13:56.586Z,102318.31
2019-02-23T18:16:22.910Z,102323.61
2019-02-23T18:18:49.282Z,102311.08
2019-02-23T18:21:15.620Z,102306.33
2019-02-23T18:23:42.297Z,102309.39
2019-02-23T18:26:08.919Z,102311.58
2019-02-23T18:28:35.854Z,102317.19
2019-02-23T18:31:03.447Z,102318.92
2019-02-23T18:33:30.199Z,102327.98
2019-02-23T18:35:56.755Z,102328.91
2019-02-23T18:38:23.398Z,102334.93
2019-02-23T18:40:51.069Z,102328.88
2019-02-23T18:43:17.721Z,102331.07
2019-02-23T18:45:47.426Z,102324.10
2019-02-23T18:48:12.627Z,102326.23
2019-02-23T18:50:39.365Z,102328.75
2019-02-23T18:53:05.990Z,102329.25
2019-02-23T18:55:40.680Z,102317.66
2019-02-23T18:58:00.870Z,102308.59
2019-02-23T19:00:27.503Z,102313.37
2019-02-23T19:02:54.111Z,102319.04
2019-02-23T19:05:20.511Z,102316.47
2019-02-23T19:07:47.085Z,102312.64
2019-02-23T19:10:13.482Z,102303.57
2019-02-23T19:12:40.163Z,102302.30
2019-02-23T19:15:11.834Z,102308.34
2019-02-23T19:17:38.565Z,102302.73
2019-02-23T19:20:13.109Z,102298.44
2019-02-23T19:22:39.769Z,102294.94
2019-02-23T19:25:08.909Z,102293.22
2019-02-23T19:27:35.218Z,102292.33
2019-02-23T19:30:02.022Z,102291.48
2019-02-23T19:32:30.491Z,102289.36
2019-02-23T19:34:56.861Z,102289.38
2019-02-23T19:37:23.352Z,102286.39
2019-02-23T19:39:50.221Z,102279.52
2019-02-23T19:42:16.620Z,102283.41
2019-02-23T19:44:42.962Z,102281.29
2019-02-23T19:47:09.782Z,102284.73
2019-02-23T19:49:36.478Z,102278.69
2019-02-23T19:52:03.818Z,102278.23
2019-02-23T19:54:30.613Z,102274.80
2019-02-23T19:56:57.068Z,102269.62
2019-02-23T19:59:23.649Z,102270.94
2019-02-23T20:01:50.147Z,102273.11
2019-02-23T20:04:16.820Z,102273.08
2019-02-23T20:06:43.352Z,102271.81
2019-02-23T20:09:10.058Z,102271.80
2019-02-23T20:11:38.372Z,102274.81
2019-02-23T20:14:04.964Z,102270.09
2019-02-23T20:16:31.329Z,102275.27
2019-02-23T20:18:57.936Z,102280.01
2019-02-23T20:21:24.617Z,102280.91
2019-02-23T20:23:51.275Z,102279.62
2019-02-23T20:26:17.611Z,102282.17
2019-02-23T20:28:43.940Z,102271.85
2019-02-23T20:31:10.348Z,102274.01
2019-02-23T20:33:36.980Z,102276.16
2019-02-23T20:36:03.573Z,102274.01
2019-02-23T20:38:30.300Z,102273.15
2019-02-23T20:40:56.638Z,102271.41
2019-02-23T20:43:23.306Z,102271.41
2019-02-23T20:45:49.686Z,102273.15
2019-02-23T20:48:16.666Z,102264.97
2019-02-23T20:50:43.142Z,102264.54
2019-02-23T20:53:09.656Z,102267.56
2019-02-23T20:55:36.297Z,102257.65
2019-02-23T20:58:02.695Z,102250.33
2019-02-23T21:00:29.334Z,102246.45
2019-02-23T21:02:55.640Z,102253.34
2019-02-23T21:05:21.966Z,102246.00
2019-02-23T21:07:48.643Z,102245.56
2019-02-23T21:10:16.383Z,102242.14
2019-02-23T21:12:43.006Z,102240.00
2019-02-23T21:15:10.407Z,102246.01
2019-02-23T21:17:38.756Z,102238.23
2019-02-23T21:20:08.045Z,102241.27
2019-02-23T21:22:35.565Z,102233.95
2019-02-23T21:25:04.257Z,102222.33
2019-02-23T21:27:30.649Z,102228.34
2019-02-23T21:29:58.399Z,102227.48
2019-02-23T21:32:24.757Z,102221.45
2019-02-23T21:34:51.208Z,102231.80
2019-02-23T21:37:18.315Z,102230.06
2019-02-23T21:39:44.807Z,102231.36
2019-02-23T21:42:11.184Z,102226.64
2019-02-23T21:44:37.506Z,102234.34
2019-02-23T21:47:03.839Z,102236.52
2019-02-23T21:49:31.658Z,102232.17
2019-02-23T21:51:58.113Z,102235.22
2019-02-23T21:54:25.743Z,102231.77
2019-02-23T21:56:52.459Z,102217.56
2019-02-23T21:59:18.842Z,102220.58
2019-02-23T22:01:45.531Z,102214.10
2019-02-23T22:04:11.964Z,102215.44
2019-02-23T22:06:38.421Z,102213.69
2019-02-23T22:09:04.942Z,102213.70
2019-02-23T22:11:33.237Z,102217.14
2019-02-23T22:14:00.047Z,102212.39
2019-02-23T22:16:26.850Z,102216.72
2019-02-23T22:18:53.237Z,102228.34
2019-02-23T22:21:19.637Z,102227.05
2019-02-23T22:23:46.287Z,102227.49
2019-02-23T22:26:12.678Z,102227.50
2019-02-23T22:28:40.179Z,102226.61
2019-02-23T22:31:06.624Z,102226.20
2019-02-23T22:33:33.761Z,102227.92
2019-02-23T22:36:00.072Z,102229.63
2019-02-23T22:38:27.788Z,102226.20
2019-02-23T22:40:54.383Z,102226.19
2019-02-23T22:43:20.695Z,102230.93
2019-02-23T22:45:47.285Z,102234.78
2019-02-23T22:48:13.684Z,102236.05
2019-02-23T22:50:40.172Z,102233.03
2019-02-23T22:53:06.933Z,102230.88
2019-02-23T22:55:33.421Z,102232.16
2019-02-23T22:58:00.212Z,102230.87
2019-02-23T23:00:28.896Z,102230.83
2019-02-23T23:02:57.135Z,102223.51
2019-02-23T23:05:23.476Z,102219.19
2019-02-23T23:07:49.837Z,102216.19
2019-02-23T23:10:16.415Z,102214.90
2019-02-23T23:12:43.022Z,102214.94
2019-02-23T23:15:10.317Z,102217.95
2019-02-23T23:17:36.761Z,102205.91
2019-02-23T23:20:06.264Z,102210.66
2019-02-23T23:22:32.848Z,102214.53
2019-02-23T23:24:59.438Z,102214.52
2019-02-23T23:27:25.730Z,102212.37
2019-02-23T23:29:52.087Z,102211.10
2019-02-23T23:32:18.392Z,102219.70
2019-02-23T23:34:44.725Z,102214.54
2019-02-23T23:37:11.317Z,102218.85
2019-02-23T23:39:37.654Z,102221.88
2019-02-23T23:42:04.292Z,102224.00
2019-02-23T23:44:30.899Z,102213.22
2019-02-23T23:46:57.212Z,102216.64
2019-02-23T23:49:23.815Z,102220.91
2019-02-23T23:51:50.377Z,102205.85
2019-02-23T23:54:16.989Z,102207.59
2019-02-23T23:56:43.327Z,102203.71
2019-02-23T23:59:09.670Z,102201.53
